createdAt,value
2023-11-27T00:00:37.693Z,100302.25
2023-11-27T00:03:08.094Z,100293.75
2023-11-27T00:05:35.392Z,100293.53
2023-11-27T00:08:02.548Z,100302.03
2023-11-27T00:10:29.532Z,100295.75
2023-11-27T00:13:01.249Z,100304.25
2023-11-27T00:15:28.862Z,100293.84
2023-11-27T00:17:55.982Z,100288.22
2023-11-27T00:20:23.407Z,100298.59
2023-11-27T00:22:50.179Z,100289.06
2023-11-27T00:25:17.317Z,100279.22
2023-11-27T00:27:44.396Z,100271.88
2023-11-27T00:30:11.951Z,100280.44
2023-11-27T00:32:38.851Z,100276.06
2023-11-27T00:35:06.304Z,100293.88
2023-11-27T00:37:33.686Z,100302.97
2023-11-27T00:40:00.598Z,100295.00
2023-11-27T00:42:27.461Z,100281.41
2023-11-27T00:44:54.499Z,100278.78
2023-11-27T00:47:21.386Z,100272.09
2023-11-27T00:49:48.347Z,100276.59
2023-11-27T00:52:15.726Z,100279.50
2023-11-27T00:54:42.686Z,100272.81
2023-11-27T00:57:10.128Z,100261.28
2023-11-27T00:59:41.925Z,100263.72
2023-11-27T01:02:09.276Z,100264.00
2023-11-27T01:04:40.524Z,100265.19
2023-11-27T01:07:07.773Z,100272.19
2023-11-27T01:09:37.202Z,100270.41
2023-11-27T01:12:04.480Z,100266.59
2023-11-27T01:14:32.348Z,100266.13
2023-11-27T01:17:00.092Z,100265.91
2023-11-27T01:19:27.624Z,100260.53
2023-11-27T01:21:54.743Z,100252.91
2023-11-27T01:24:24.323Z,100242.97
2023-11-27T01:26:53.553Z,100231.63
2023-11-27T01:29:23.434Z,100214.41
2023-11-27T01:31:50.496Z,100220.72
2023-11-27T01:34:18.116Z,100214.03
2023-11-27T01:36:45.739Z,100213.16
2023-11-27T01:39:12.535Z,100212.25
2023-11-27T01:41:40.060Z,100211.00
2023-11-27T01:44:07.322Z,100218.63
2023-11-27T01:46:34.920Z,100210.66
2023-11-27T01:49:02.235Z,100208.59
2023-11-27T01:51:30.994Z,100212.69
2023-11-27T01:54:01.064Z,100198.91
2023-11-27T01:56:29.958Z,100205.47
2023-11-27T01:58:58.662Z,100212.16
2023-11-27T02:01:27.180Z,100209.34
2023-11-27T02:03:54.117Z,100215.72
2023-11-27T02:06:21.000Z,100219.94
2023-11-27T02:08:47.924Z,100221.59
2023-11-27T02:11:20.144Z,100219.06
2023-11-27T02:13:47.511Z,100218.25
2023-11-27T02:16:15.404Z,100212.06
2023-11-27T02:18:43.254Z,100206.31
2023-11-27T02:21:11.967Z,100207.53
2023-11-27T02:23:39.769Z,100200.66
2023-11-27T02:26:07.514Z,100207.34
2023-11-27T02:28:34.427Z,100197.06
2023-11-27T02:31:01.531Z,100192.06
2023-11-27T02:33:28.575Z,100179.28
2023-11-27T02:35:55.410Z,100175.50
2023-11-27T02:38:22.427Z,100178.56
2023-11-27T02:40:49.341Z,100178.63
2023-11-27T02:43:16.266Z,100171.28
2023-11-27T02:45:43.725Z,100172.78
2023-11-27T02:48:10.677Z,100181.59
2023-11-27T02:50:37.997Z,100169.84
2023-11-27T02:53:04.769Z,100166.63
2023-11-27T02:55:31.561Z,100172.38
2023-11-27T02:57:58.451Z,100180.13
2023-11-27T03:00:25.305Z,100178.31
2023-11-27T03:02:52.173Z,100163.47
2023-11-27T03:05:19.146Z,100175.41
2023-11-27T03:07:46.239Z,100178.03
2023-11-27T03:10:14.674Z,100174.66
2023-11-27T03:12:42.758Z,100176.44
2023-11-27T03:15:09.923Z,100180.66
2023-11-27T03:17:42.470Z,100180.41
2023-11-27T03:20:12.631Z,100175.06
2023-11-27T03:22:42.706Z,100173.31
2023-11-27T03:25:10.334Z,100183.47
2023-11-27T03:27:37.381Z,100177.34
2023-11-27T03:30:05.965Z,100178.44
2023-11-27T03:32:33.766Z,100175.25
2023-11-27T03:35:01.606Z,100162.63
2023-11-27T03:37:30.353Z,100174.66
2023-11-27T03:39:57.340Z,100167.75
2023-11-27T03:42:24.240Z,100161.66
2023-11-27T03:44:51.013Z,100156.41
2023-11-27T03:47:17.897Z,100148.47
2023-11-27T03:49:44.865Z,100151.56
2023-11-27T03:52:12.956Z,100150.34
2023-11-27T03:54:39.802Z,100154.66
2023-11-27T03:57:07.135Z,100151.38
2023-11-27T03:59:34.267Z,100148.66
2023-11-27T04:02:01.694Z,100152.66
2023-11-27T04:04:28.608Z,100136.25
2023-11-27T04:06:55.853Z,100152.38
2023-11-27T04:09:23.152Z,100145.47
2023-11-27T04:11:50.387Z,100143.50
2023-11-27T04:14:17.314Z,100146.81
2023-11-27T04:16:44.795Z,100137.91
2023-11-27T04:19:11.828Z,100116.97
2023-11-27T04:21:39.122Z,100120.31
2023-11-27T04:24:06.796Z,100112.88
2023-11-27T04:26:33.810Z,100117.06
2023-11-27T04:29:01.191Z,100133.44
2023-11-27T04:31:28.090Z,100145.78
2023-11-27T04:33:54.888Z,100140.03
2023-11-27T04:36:22.785Z,100142.56
2023-11-27T04:38:49.918Z,100143.38
2023-11-27T04:41:17.992Z,100153.66
2023-11-27T04:43:44.898Z,100158.16
2023-11-27T04:46:12.650Z,100159.00
2023-11-27T04:48:39.629Z,100151.75
2023-11-27T04:51:06.998Z,100153.00
2023-11-27T04:53:34.179Z,100131.13
2023-11-27T04:56:01.196Z,100139.19
2023-11-27T04:58:29.694Z,100139.19
2023-11-27T05:00:56.975Z,100134.28
2023-11-27T05:03:24.002Z,100129.47
2023-11-27T05:05:50.882Z,100135.66
2023-11-27T05:08:17.652Z,100141.00
2023-11-27T05:10:45.879Z,100139.53
2023-11-27T05:13:13.969Z,100147.41
2023-11-27T05:15:40.779Z,100129.06
2023-11-27T05:18:07.552Z,100133.97
2023-11-27T05:20:34.702Z,100117.94
2023-11-27T05:23:04.827Z,100120.44
2023-11-27T05:25:31.646Z,100111.88
2023-11-27T05:27:58.511Z,100111.88
2023-11-27T05:30:25.676Z,100126.53
2023-11-27T05:32:53.400Z,100114.72
2023-11-27T05:35:20.403Z,100124.03
2023-11-27T05:37:47.272Z,100137.72
2023-11-27T05:40:15.055Z,100126.13
2023-11-27T05:42:42.169Z,100128.84
2023-11-27T05:45:12.137Z,100133.03
2023-11-27T05:47:42.348Z,100130.63
2023-11-27T05:50:15.904Z,100135.78
2023-11-27T05:52:42.826Z,100137.63
2023-11-27T05:55:10.405Z,100134.69
2023-11-27T05:57:37.856Z,100130.13
2023-11-27T06:00:05.224Z,100125.50
2023-11-27T06:02:39.285Z,100121.94
2023-11-27T06:05:07.120Z,100115.78
2023-11-27T06:07:35.043Z,100117.22
2023-11-27T06:10:04.148Z,100122.34
2023-11-27T06:12:31.251Z,100115.97
2023-11-27T06:14:58.043Z,100120.06
2023-11-27T06:17:24.890Z,100116.19
2023-11-27T06:19:51.744Z,100099.41
2023-11-27T06:22:18.566Z,100111.34
2023-11-27T06:24:45.534Z,100107.25
2023-11-27T06:27:12.347Z,100110.94
2023-11-27T06:29:39.188Z,100107.47
2023-11-27T06:32:06.350Z,100100.78
2023-11-27T06:34:33.349Z,100106.41
2023-11-27T06:37:00.188Z,100112.97
2023-11-27T06:39:29.911Z,100113.91
2023-11-27T06:41:56.649Z,100106.94
2023-11-27T06:44:23.762Z,100107.06
2023-11-27T06:46:50.721Z,100112.69
2023-11-27T06:49:17.641Z,100114.25
2023-11-27T06:51:44.492Z,100110.59
2023-11-27T06:54:11.443Z,100122.53
2023-11-27T06:56:38.525Z,100116.16
2023-11-27T06:59:05.872Z,100131.16
2023-11-27T07:01:33.582Z,100118.16
2023-11-27T07:04:01.717Z,100124.78
2023-11-27T07:06:29.068Z,100113.59
2023-11-27T07:08:56.004Z,100119.66
2023-11-27T07:11:26.292Z,100106.56
2023-11-27T07:13:53.354Z,100118.34
2023-11-27T07:16:20.557Z,100119.84
2023-11-27T07:18:48.015Z,100124.97
2023-11-27T07:21:15.068Z,100124.72
2023-11-27T07:23:42.716Z,100114.84
2023-11-27T07:26:09.704Z,100125.84
2023-11-27T07:28:39.835Z,100117.81
2023-11-27T07:31:06.834Z,100116.75
2023-11-27T07:33:35.256Z,100113.31
2023-11-27T07:36:02.065Z,100109.53
2023-11-27T07:38:29.679Z,100108.97
2023-11-27T07:40:57.414Z,100123.75
2023-11-27T07:43:24.255Z,100104.22
2023-11-27T07:45:51.170Z,100104.63
2023-11-27T07:48:19.766Z,100104.50
2023-11-27T07:50:47.072Z,100112.66
2023-11-27T07:53:13.841Z,100111.78
2023-11-27T07:55:41.505Z,100106.66
2023-11-27T07:58:08.728Z,100101.31
2023-11-27T08:00:35.556Z,100109.56
2023-11-27T08:03:02.256Z,100114.56
2023-11-27T08:05:30.952Z,100115.06
2023-11-27T08:07:58.032Z,100110.31
2023-11-27T08:10:25.109Z,100128.72
2023-11-27T08:13:28.728Z,100116.72
2023-11-27T08:15:55.585Z,100113.25
2023-11-27T08:18:22.416Z,100112.75
2023-11-27T08:20:51.277Z,100115.28
2023-11-27T08:23:18.150Z,100105.16
2023-11-27T08:25:47.960Z,100105.53
2023-11-27T08:28:14.914Z,100090.94
2023-11-27T08:30:43.264Z,100092.84
2023-11-27T08:33:10.373Z,100094.41
2023-11-27T08:35:37.262Z,100092.88
2023-11-27T08:38:05.633Z,100100.75
2023-11-27T08:40:32.767Z,100093.13
2023-11-27T08:43:01.648Z,100088.38
2023-11-27T08:45:28.680Z,100080.63
2023-11-27T08:47:56.944Z,100082.66
2023-11-27T08:50:26.490Z,100085.75
2023-11-27T08:52:59.987Z,100074.69
2023-11-27T08:55:32.828Z,100067.38
2023-11-27T08:58:04.822Z,100064.88
2023-11-27T09:00:32.460Z,100065.22
2023-11-27T09:03:01.514Z,100069.28
2023-11-27T09:05:33.392Z,100070.44
2023-11-27T09:08:06.258Z,100065.44
2023-11-27T09:10:34.716Z,100063.63
2023-11-27T09:13:01.716Z,100053.81
2023-11-27T09:15:28.667Z,100051.91
2023-11-27T09:17:55.470Z,100047.09
2023-11-27T09:20:22.364Z,100050.31
2023-11-27T09:22:49.143Z,100039.44
2023-11-27T09:25:16.697Z,100033.59
2023-11-27T09:27:43.861Z,100034.03
2023-11-27T09:30:11.737Z,100034.13
2023-11-27T09:32:39.542Z,100028.13
2023-11-27T09:35:16.819Z,100021.84
2023-11-27T09:37:44.163Z,100020.25
2023-11-27T09:40:14.051Z,100021.91
2023-11-27T09:42:47.101Z,100019.75
2023-11-27T09:45:20.555Z,100013.94
2023-11-27T09:47:52.484Z,100011.91
2023-11-27T09:50:22.032Z,100000.84
2023-11-27T09:53:00.994Z,99990.38
2023-11-27T09:55:33.451Z,99987.78
2023-11-27T09:58:00.982Z,99987.56
2023-11-27T10:00:29.097Z,99985.06
2023-11-27T10:02:57.000Z,99978.94
2023-11-27T10:05:24.197Z,99984.63
2023-11-27T10:07:52.592Z,99977.88
2023-11-27T10:10:27.650Z,99976.34
2023-11-27T10:12:59.415Z,99963.88
2023-11-27T10:15:27.992Z,99963.47
2023-11-27T10:17:57.547Z,99957.22
2023-11-27T10:20:30.163Z,99951.56
2023-11-27T10:23:00.262Z,99946.72
2023-11-27T10:25:27.103Z,99948.56
2023-11-27T10:28:01.917Z,99941.66
2023-11-27T10:30:32.920Z,99944.19
2023-11-27T10:33:00.649Z,99939.34
2023-11-27T10:35:28.005Z,99927.41
2023-11-27T10:37:56.209Z,99914.94
2023-11-27T10:40:28.107Z,99915.09
2023-11-27T10:43:02.517Z,99904.25
2023-11-27T10:45:31.463Z,99892.34
2023-11-27T10:48:03.779Z,99894.97
2023-11-27T10:50:34.560Z,99885.97
2023-11-27T10:53:01.789Z,99884.56
2023-11-27T10:55:30.726Z,99871.53
2023-11-27T10:57:58.869Z,99869.03
2023-11-27T11:00:40.569Z,99879.31
2023-11-27T11:03:16.288Z,99883.72
2023-11-27T11:05:51.208Z,99866.53
2023-11-27T11:08:23.713Z,99870.31
2023-11-27T11:10:50.741Z,99864.03
2023-11-27T11:13:19.234Z,99855.03
2023-11-27T11:16:12.861Z,99848.34
2023-11-27T11:18:52.834Z,99842.22
2023-11-27T11:21:23.449Z,99834.28
2023-11-27T11:24:03.457Z,99835.22
2023-11-27T11:26:50.002Z,99831.44
2023-11-27T11:29:34.293Z,99810.59
2023-11-27T11:32:09.906Z,99808.94
2023-11-27T11:34:39.677Z,99815.00
2023-11-27T11:37:08.536Z,99806.16
2023-11-27T11:39:35.701Z,99794.84
2023-11-27T11:42:14.635Z,99791.69
2023-11-27T11:44:42.841Z,99783.00
2023-11-27T11:47:30.143Z,99786.91
2023-11-27T11:50:26.935Z,99774.38
2023-11-27T11:52:56.856Z,99752.38
2023-11-27T11:55:34.877Z,99757.13
2023-11-27T11:58:07.605Z,99752.00
2023-11-27T12:00:45.434Z,99761.19
2023-11-27T12:03:24.803Z,99759.63
2023-11-27T12:05:56.633Z,99754.06
2023-11-27T12:08:25.803Z,99749.00
2023-11-27T12:10:57.207Z,99732.41
2023-11-27T12:13:25.959Z,99736.75
2023-11-27T12:15:54.196Z,99742.09
2023-11-27T12:18:21.543Z,99734.41
2023-11-27T12:20:50.179Z,99734.09
2023-11-27T12:23:18.633Z,99735.13
2023-11-27T12:25:45.711Z,99731.56
2023-11-27T12:28:14.283Z,99727.50
2023-11-27T12:30:41.803Z,99719.41
2023-11-27T12:33:10.065Z,99708.16
2023-11-27T12:35:38.710Z,99702.63
2023-11-27T12:38:09.565Z,99701.13
2023-11-27T12:40:37.181Z,99686.94
2023-11-27T12:43:08.487Z,99687.81
2023-11-27T12:45:36.926Z,99678.81
2023-11-27T12:48:09.918Z,99676.69
2023-11-27T12:50:42.396Z,99673.91
2023-11-27T12:53:10.216Z,99675.56
2023-11-27T12:55:49.907Z,99667.00
2023-11-27T12:58:22.382Z,99656.59
2023-11-27T13:00:49.816Z,99654.13
2023-11-27T13:03:21.162Z,99645.53
2023-11-27T13:05:53.524Z,99656.25
2023-11-27T13:08:33.944Z,99655.72
2023-11-27T13:11:06.126Z,99644.63
2023-11-27T13:13:33.109Z,99640.66
2023-11-27T13:16:03.911Z,99642.47
2023-11-27T13:18:33.419Z,99635.38
2023-11-27T13:21:01.046Z,99633.63
2023-11-27T13:23:28.524Z,99632.47
2023-11-27T13:26:18.190Z,99623.56
2023-11-27T13:28:45.170Z,99633.81
2023-11-27T13:31:17.240Z,99630.50
2023-11-27T13:33:44.471Z,99634.19
2023-11-27T13:36:19.932Z,99631.88
2023-11-27T13:38:48.490Z,99617.16
2023-11-27T13:41:16.163Z,99622.97
2023-11-27T13:43:43.442Z,99628.25
2023-11-27T13:46:11.801Z,99622.75
2023-11-27T13:48:39.108Z,99617.31
2023-11-27T13:51:15.674Z,99622.38
2023-11-27T13:53:43.712Z,99610.16
2023-11-27T13:56:11.528Z,99623.66
2023-11-27T13:58:38.455Z,99614.41
2023-11-27T14:01:12.207Z,99614.50
2023-11-27T14:03:43.458Z,99615.06
2023-11-27T14:06:26.627Z,99607.75
2023-11-27T14:08:55.280Z,99596.22
2023-11-27T14:11:34.034Z,99596.84
2023-11-27T14:14:07.336Z,99586.78
2023-11-27T14:16:43.714Z,99582.13
2023-11-27T14:19:13.609Z,99580.84
2023-11-27T14:22:10.264Z,99574.50
2023-11-27T14:25:06.465Z,99574.81
2023-11-27T14:27:43.111Z,99580.03
2023-11-27T14:30:14.919Z,99571.56
2023-11-27T14:32:42.524Z,99570.91
2023-11-27T14:35:09.438Z,99570.69
2023-11-27T14:37:36.607Z,99566.16
2023-11-27T14:40:18.874Z,99567.56
2023-11-27T14:42:46.342Z,99552.06
2023-11-27T14:45:16.326Z,99555.97
2023-11-27T14:47:47.168Z,99555.16
2023-11-27T14:50:21.770Z,99557.72
2023-11-27T14:52:51.189Z,99546.94
2023-11-27T14:55:20.946Z,99551.38
2023-11-27T14:57:49.583Z,99554.44
2023-11-27T15:00:28.811Z,99550.28
2023-11-27T15:02:56.833Z,99547.28
2023-11-27T15:05:23.784Z,99540.66
2023-11-27T15:07:50.681Z,99532.13
2023-11-27T15:10:18.331Z,99536.72
2023-11-27T15:12:46.543Z,99532.13
2023-11-27T15:15:15.846Z,99522.84
2023-11-27T15:17:42.716Z,99520.53
2023-11-27T15:20:13.930Z,99513.59
2023-11-27T15:22:40.844Z,99515.94
2023-11-27T15:25:09.368Z,99506.81
2023-11-27T15:27:39.378Z,99502.53
2023-11-27T15:30:10.242Z,99500.72
2023-11-27T15:32:37.261Z,99498.00
2023-11-27T15:35:05.319Z,99494.69
2023-11-27T15:37:32.274Z,99495.25
2023-11-27T15:39:59.839Z,99493.63
2023-11-27T15:42:28.487Z,99498.88
2023-11-27T15:44:55.715Z,99497.38
2023-11-27T15:47:24.106Z,99485.47
2023-11-27T15:49:51.113Z,99482.94
2023-11-27T15:52:18.251Z,99471.19
2023-11-27T15:54:45.173Z,99462.75
2023-11-27T15:57:12.183Z,99459.97
2023-11-27T15:59:44.473Z,99447.25
2023-11-27T16:02:13.258Z,99453.63
2023-11-27T16:04:40.371Z,99443.66
2023-11-27T16:07:07.291Z,99448.03
2023-11-27T16:09:34.637Z,99447.06
2023-11-27T16:12:01.515Z,99442.69
2023-11-27T16:14:30.483Z,99434.44
2023-11-27T16:16:57.355Z,99426.53
2023-11-27T16:19:25.384Z,99422.22
2023-11-27T16:21:52.233Z,99422.22
2023-11-27T16:24:19.435Z,99420.34
2023-11-27T16:26:48.701Z,99410.94
2023-11-27T16:29:18.353Z,99411.63
2023-11-27T16:31:49.253Z,99411.94
2023-11-27T16:34:16.505Z,99411.09
2023-11-27T16:36:43.546Z,99412.06
2023-11-27T16:39:14.457Z,99410.44
2023-11-27T16:41:41.994Z,99406.59
2023-11-27T16:44:08.914Z,99405.47
2023-11-27T16:46:36.014Z,99396.41
2023-11-27T16:49:02.924Z,99396.56
2023-11-27T16:51:29.687Z,99386.50
2023-11-27T16:53:56.452Z,99381.47
2023-11-27T16:56:25.861Z,99380.78
2023-11-27T16:58:52.862Z,99370.53
2023-11-27T17:01:21.169Z,99366.56
2023-11-27T17:03:50.391Z,99363.25
2023-11-27T17:06:19.697Z,99363.25
2023-11-27T17:08:47.700Z,99349.63
2023-11-27T17:11:16.087Z,99366.25
2023-11-27T17:13:45.892Z,99357.22
2023-11-27T17:16:13.795Z,99355.34
2023-11-27T17:18:40.706Z,99348.03
2023-11-27T17:21:08.331Z,99349.00
2023-11-27T17:23:36.990Z,99339.25
2023-11-27T17:26:03.978Z,99340.22
2023-11-27T17:28:32.081Z,99335.78
2023-11-27T17:30:58.999Z,99323.38
2023-11-27T17:33:25.733Z,99326.47
2023-11-27T17:35:52.901Z,99321.72
2023-11-27T17:38:19.869Z,99321.31
2023-11-27T17:40:46.800Z,99318.19
2023-11-27T17:43:17.789Z,99322.84
2023-11-27T17:45:47.565Z,99317.56
2023-11-27T17:48:17.535Z,99316.22
2023-11-27T17:50:44.451Z,99310.81
2023-11-27T17:53:11.580Z,99307.81
2023-11-27T17:55:45.748Z,99295.31
2023-11-27T17:58:19.270Z,99296.44
2023-11-27T18:00:47.694Z,99297.28
2023-11-27T18:03:15.552Z,99296.44
2023-11-27T18:05:42.332Z,99284.88
2023-11-27T18:08:13.218Z,99292.84
2023-11-27T18:10:40.475Z,99289.81
2023-11-27T18:13:07.405Z,99288.47
2023-11-27T18:15:34.253Z,99286.28
2023-11-27T18:18:01.481Z,99273.13
2023-11-27T18:20:29.298Z,99279.22
2023-11-27T18:22:56.067Z,99270.50
2023-11-27T18:25:24.541Z,99275.63
2023-11-27T18:28:00.867Z,99259.97
2023-11-27T18:30:29.035Z,99253.81
2023-11-27T18:32:55.971Z,99243.88
2023-11-27T18:35:24.036Z,99234.75
2023-11-27T18:37:50.787Z,99232.50
2023-11-27T18:40:19.084Z,99223.03
2023-11-27T18:42:49.282Z,99221.09
2023-11-27T18:45:22.631Z,99207.41
2023-11-27T18:47:50.699Z,99196.22
2023-11-27T18:50:17.535Z,99203.63
2023-11-27T18:52:44.506Z,99192.78
2023-11-27T18:55:12.035Z,99188.00
2023-11-27T18:57:39.033Z,99178.34
2023-11-27T19:00:07.652Z,99173.38
2023-11-27T19:02:34.774Z,99166.47
2023-11-27T19:05:01.933Z,99162.81
2023-11-27T19:07:29.147Z,99159.09
2023-11-27T19:09:56.347Z,99147.88
2023-11-27T19:12:23.393Z,99148.34
2023-11-27T19:14:53.213Z,99146.09
2023-11-27T19:17:21.461Z,99134.88
2023-11-27T19:19:48.478Z,99133.91
2023-11-27T19:22:15.355Z,99129.13
2023-11-27T19:24:43.321Z,99120.16
2023-11-27T19:27:10.180Z,99114.72
2023-11-27T19:29:37.259Z,99120.16
2023-11-27T19:32:04.432Z,99102.91
2023-11-27T19:34:32.815Z,99088.88
2023-11-27T19:36:59.873Z,99083.78
2023-11-27T19:39:26.767Z,99088.41
2023-11-27T19:41:53.793Z,99083.31
2023-11-27T19:44:21.643Z,99081.53
2023-11-27T19:46:51.812Z,99081.56
2023-11-27T19:49:20.923Z,99054.25
2023-11-27T19:51:48.279Z,99076.63
2023-11-27T19:54:19.683Z,99073.34
2023-11-27T19:56:47.594Z,99064.34
2023-11-27T19:59:14.377Z,99063.84
2023-11-27T20:01:41.483Z,99049.84
2023-11-27T20:04:08.408Z,99052.97
2023-11-27T20:06:40.748Z,99046.78
2023-11-27T20:09:12.835Z,99045.75
2023-11-27T20:11:40.212Z,99035.88
2023-11-27T20:14:08.001Z,99027.34
2023-11-27T20:16:36.648Z,99027.03
2023-11-27T20:19:06.523Z,99025.88
2023-11-27T20:21:33.756Z,99015.00
2023-11-27T20:24:00.933Z,99011.03
2023-11-27T20:26:29.601Z,99017.47
2023-11-27T20:29:02.362Z,99010.91
2023-11-27T20:31:36.206Z,99001.34
2023-11-27T20:34:04.928Z,99004.47
2023-11-27T20:36:32.195Z,99000.38
2023-11-27T20:39:01.227Z,98995.28
2023-11-27T20:41:28.409Z,98990.16
2023-11-27T20:43:59.529Z,98985.22
2023-11-27T20:46:28.753Z,98987.47
2023-11-27T20:48:59.605Z,98991.78
2023-11-27T20:51:30.662Z,98982.06
2023-11-27T20:53:58.094Z,98981.44
2023-11-27T20:56:26.760Z,98980.25
2023-11-27T20:58:53.760Z,98975.84
2023-11-27T21:01:24.388Z,98962.81
2023-11-27T21:03:52.896Z,98954.59
2023-11-27T21:06:26.323Z,98955.75
2023-11-27T21:08:53.744Z,98952.47
2023-11-27T21:11:24.146Z,98952.47
2023-11-27T21:13:52.788Z,98948.19
2023-11-27T21:16:21.581Z,98942.41
2023-11-27T21:18:49.420Z,98939.94
2023-11-27T21:21:16.322Z,98930.53
2023-11-27T21:23:43.990Z,98933.00
2023-11-27T21:26:13.495Z,98920.66
2023-11-27T21:28:42.643Z,98912.75
2023-11-27T21:31:10.605Z,98908.47
2023-11-27T21:33:38.010Z,98897.94
2023-11-27T21:36:04.994Z,98901.56
2023-11-27T21:38:31.871Z,98891.53
2023-11-27T21:40:58.934Z,98896.81
2023-11-27T21:43:25.830Z,98888.09
2023-11-27T21:45:54.317Z,98891.41
2023-11-27T21:48:21.615Z,98877.41
2023-11-27T21:50:48.465Z,98872.97
2023-11-27T21:53:16.541Z,98860.47
2023-11-27T21:55:43.532Z,98859.78
2023-11-27T21:58:10.526Z,98858.31
2023-11-27T22:00:37.481Z,98853.84
2023-11-27T22:03:04.634Z,98839.69
2023-11-27T22:05:31.527Z,98841.88
2023-11-27T22:07:58.585Z,98836.44
2023-11-27T22:10:25.470Z,98834.13
2023-11-27T22:12:52.341Z,98831.34
2023-11-27T22:15:19.330Z,98827.22
2023-11-27T22:17:46.243Z,98816.03
2023-11-27T22:20:13.454Z,98806.97
2023-11-27T22:22:41.754Z,98808.78
2023-11-27T22:25:09.572Z,98798.25
2023-11-27T22:27:37.565Z,98795.94
2023-11-27T22:30:06.517Z,98791.84
2023-11-27T22:32:33.872Z,98785.41
2023-11-27T22:35:00.770Z,98777.50
2023-11-27T22:37:27.578Z,98764.66
2023-11-27T22:39:54.628Z,98761.06
2023-11-27T22:42:21.403Z,98761.38
2023-11-27T22:44:48.352Z,98754.94
2023-11-27T22:47:15.312Z,98750.19
2023-11-27T22:49:43.096Z,98748.19
2023-11-27T22:52:09.856Z,98745.88
2023-11-27T22:54:43.015Z,98737.16
2023-11-27T22:57:10.708Z,98722.69
2023-11-27T22:59:39.954Z,98722.50
2023-11-27T23:02:08.087Z,98715.91
2023-11-27T23:04:35.841Z,98702.56
2023-11-27T23:07:02.806Z,98695.47
2023-11-27T23:09:29.620Z,98685.41
2023-11-27T23:11:56.416Z,98681.28
2023-11-27T23:14:24.183Z,98673.53
2023-11-27T23:16:51.123Z,98671.88
2023-11-27T23:19:17.818Z,98666.06
2023-11-27T23:21:44.998Z,98662.28
2023-11-27T23:24:20.207Z,98649.91
2023-11-27T23:26:51.383Z,98644.34
2023-11-27T23:29:18.497Z,98639.34
2023-11-27T23:31:48.415Z,98635.13
2023-11-27T23:34:15.290Z,98629.97
2023-11-27T23:36:42.370Z,98621.53
2023-11-27T23:39:09.806Z,98617.09
2023-11-27T23:41:36.780Z,98618.19
2023-11-27T23:44:04.229Z,98610.78
2023-11-27T23:46:31.536Z,98595.53
2023-11-27T23:48:58.793Z,98610.19
2023-11-27T23:51:29.353Z,98599.78
2023-11-27T23:53:56.488Z,98596.84
2023-11-27T23:56:23.427Z,98586.34
2023-11-27T23:58:50.568Z,98584.66
